createdAt,value
2024-01-16T00:00:15.511Z,2.75
2024-01-16T00:02:37.448Z,2.40
2024-01-16T00:04:59.703Z,2.50
2024-01-16T00:07:21.791Z,2.60
2024-01-16T00:09:43.700Z,2.55
2024-01-16T00:12:06.217Z,2.70
2024-01-16T00:14:28.804Z,2.40
2024-01-16T00:16:50.712Z,2.90
2024-01-16T00:19:13.473Z,2.70
2024-01-16T00:21:43.136Z,2.47
2024-01-16T00:24:05.373Z,2.53
2024-01-16T00:26:27.343Z,2.70
2024-01-16T00:28:49.330Z,2.78
2024-01-16T00:31:11.223Z,3.00
2024-01-16T00:33:33.184Z,2.90
2024-01-16T00:35:55.128Z,2.70
2024-01-16T00:38:17.126Z,1.85
2024-01-16T00:40:39.043Z,2.70
2024-01-16T00:43:00.944Z,3.30
2024-01-16T00:45:23.348Z,3.00
2024-01-16T00:47:45.538Z,3.28
2024-01-16T00:50:07.976Z,3.30
2024-01-16T00:52:30.050Z,2.60
2024-01-16T00:54:51.887Z,2.80
2024-01-16T00:57:14.941Z,2.58
2024-01-16T00:59:37.927Z,3.00
2024-01-16T01:01:59.955Z,3.10
2024-01-16T01:04:21.861Z,2.90
2024-01-16T01:06:43.810Z,3.40
2024-01-16T01:09:05.696Z,2.92
2024-01-16T01:11:27.586Z,3.60
2024-01-16T01:13:49.534Z,3.28
2024-01-16T01:16:11.676Z,3.00
2024-01-16T01:18:33.621Z,3.30
2024-01-16T01:20:55.692Z,3.33
2024-01-16T01:23:17.668Z,3.20
2024-01-16T01:25:39.666Z,2.90
2024-01-16T01:28:01.592Z,3.00
2024-01-16T01:30:23.482Z,2.85
2024-01-16T01:32:45.522Z,3.03
2024-01-16T01:35:08.119Z,2.80
2024-01-16T01:37:30.082Z,3.00
2024-01-16T01:39:53.787Z,3.03
2024-01-16T01:42:17.028Z,3.15
2024-01-16T01:44:38.963Z,2.92
2024-01-16T01:47:01.149Z,3.38
2024-01-16T01:49:24.039Z,3.00
2024-01-16T01:51:46.039Z,3.03
2024-01-16T01:54:08.240Z,2.97
2024-01-16T01:56:30.239Z,3.05
2024-01-16T01:59:02.730Z,3.13
2024-01-16T02:01:26.954Z,3.30
2024-01-16T02:03:51.446Z,3.00
2024-01-16T02:06:14.820Z,2.97
2024-01-16T02:08:36.873Z,3.10
2024-01-16T02:10:58.784Z,3.60
2024-01-16T02:13:24.382Z,3.72
2024-01-16T02:15:46.406Z,3.30
2024-01-16T02:18:08.771Z,3.50
2024-01-16T02:20:30.744Z,3.13
2024-01-16T02:22:55.989Z,3.73
2024-01-16T02:25:18.190Z,3.75
2024-01-16T02:27:40.073Z,3.70
2024-01-16T02:30:02.026Z,3.47
2024-01-16T02:32:23.944Z,3.20
2024-01-16T02:34:45.835Z,3.50
2024-01-16T02:37:07.793Z,3.58
2024-01-16T02:39:29.639Z,3.47
2024-01-16T02:41:51.983Z,3.70
2024-01-16T02:44:13.959Z,3.60
2024-01-16T02:46:35.844Z,3.72
2024-01-16T02:48:57.733Z,3.30
2024-01-16T02:51:19.674Z,3.70
2024-01-16T02:53:41.736Z,3.40
2024-01-16T02:56:03.973Z,3.50
2024-01-16T02:58:30.238Z,3.70
2024-01-16T03:00:52.117Z,3.70
2024-01-16T03:03:15.957Z,3.70
2024-01-16T03:05:37.998Z,3.63
2024-01-16T03:08:00.151Z,3.45
2024-01-16T03:10:22.506Z,3.70
2024-01-16T03:12:44.428Z,3.70
2024-01-16T03:15:06.937Z,3.80
2024-01-16T03:17:28.897Z,3.10
2024-01-16T03:19:50.842Z,3.53
2024-01-16T03:22:12.743Z,3.90
2024-01-16T03:24:34.609Z,3.40
2024-01-16T03:26:56.539Z,3.88
2024-01-16T03:29:18.511Z,3.70
2024-01-16T03:31:40.525Z,3.70
2024-01-16T03:34:02.985Z,3.90
2024-01-16T03:36:24.895Z,3.80
2024-01-16T03:38:46.980Z,3.65
2024-01-16T03:41:09.242Z,3.10
2024-01-16T03:43:31.527Z,3.53
2024-01-16T03:45:53.459Z,3.50
2024-01-16T03:48:15.548Z,4.20
2024-01-16T03:50:37.957Z,4.00
2024-01-16T03:52:59.945Z,3.60
2024-01-16T03:55:22.120Z,3.65
2024-01-16T03:57:43.978Z,4.00
2024-01-16T04:00:06.988Z,4.03
2024-01-16T04:02:28.929Z,3.50
2024-01-16T04:04:50.938Z,3.70
2024-01-16T04:07:12.816Z,3.75
2024-01-16T04:09:34.637Z,3.67
2024-01-16T04:11:56.654Z,3.28
2024-01-16T04:14:19.593Z,3.33
2024-01-16T04:16:41.592Z,3.70
2024-01-16T04:19:04.517Z,3.90
2024-01-16T04:21:26.881Z,3.10
2024-01-16T04:23:48.915Z,3.63
2024-01-16T04:26:10.931Z,3.63
2024-01-16T04:28:32.922Z,3.40
2024-01-16T04:30:54.997Z,3.60
2024-01-16T04:33:17.085Z,3.50
2024-01-16T04:35:39.144Z,3.38
2024-01-16T04:38:01.102Z,3.90
2024-01-16T04:40:23.121Z,3.40
2024-01-16T04:42:45.267Z,3.45
2024-01-16T04:45:07.858Z,3.70
2024-01-16T04:47:29.871Z,3.40
2024-01-16T04:49:51.818Z,3.97
2024-01-16T04:52:13.713Z,3.80
2024-01-16T04:54:35.561Z,3.50
2024-01-16T04:56:57.435Z,3.93
2024-01-16T04:59:19.391Z,3.15
2024-01-16T05:01:41.329Z,3.28
2024-01-16T05:04:04.788Z,3.80
2024-01-16T05:06:26.840Z,3.50
2024-01-16T05:08:49.700Z,3.53
2024-01-16T05:11:12.283Z,3.20
2024-01-16T05:13:34.162Z,3.40
2024-01-16T05:15:56.148Z,3.13
2024-01-16T05:18:18.233Z,3.13
2024-01-16T05:20:40.653Z,3.50
2024-01-16T05:23:02.641Z,3.60
2024-01-16T05:25:24.657Z,2.90
2024-01-16T05:27:46.532Z,2.63
2024-01-16T05:30:09.392Z,3.45
2024-01-16T05:32:31.533Z,4.00
2024-01-16T05:34:53.881Z,4.00
2024-01-16T05:37:15.799Z,4.22
2024-01-16T05:39:37.803Z,4.45
2024-01-16T05:42:00.351Z,4.70
2024-01-16T05:44:22.253Z,3.70
2024-01-16T05:46:44.446Z,4.43
2024-01-16T05:49:06.441Z,4.57
2024-01-16T05:51:30.662Z,4.93
2024-01-16T05:53:53.250Z,4.50
2024-01-16T05:56:15.294Z,4.60
2024-01-16T05:58:39.913Z,4.38
2024-01-16T06:01:01.859Z,4.00
2024-01-16T06:03:23.736Z,4.13
2024-01-16T06:05:45.704Z,4.47
2024-01-16T06:08:07.751Z,4.10
2024-01-16T06:10:29.665Z,3.80
2024-01-16T06:12:51.581Z,4.20
2024-01-16T06:15:13.507Z,3.83
2024-01-16T06:17:35.868Z,3.90
2024-01-16T06:19:57.936Z,3.70
2024-01-16T06:22:19.833Z,3.70
2024-01-16T06:24:41.725Z,3.90
2024-01-16T06:27:07.986Z,3.55
2024-01-16T06:29:34.979Z,3.75
2024-01-16T06:31:57.699Z,3.90
2024-01-16T06:34:19.669Z,3.70
2024-01-16T06:36:41.653Z,3.92
2024-01-16T06:39:04.464Z,3.60
2024-01-16T06:41:26.384Z,3.80
2024-01-16T06:43:48.398Z,3.67
2024-01-16T06:46:10.779Z,3.60
2024-01-16T06:48:32.821Z,3.53
2024-01-16T06:50:54.853Z,3.75
2024-01-16T06:53:17.474Z,3.20
2024-01-16T06:55:39.754Z,3.40
2024-01-16T06:58:01.651Z,3.10
2024-01-16T07:00:23.876Z,3.00
2024-01-16T07:02:45.996Z,3.35
2024-01-16T07:05:08.498Z,3.00
2024-01-16T07:07:31.377Z,3.40
2024-01-16T07:09:53.342Z,4.03
2024-01-16T07:12:15.223Z,3.58
2024-01-16T07:14:39.125Z,3.83
2024-01-16T07:17:01.178Z,4.07
2024-01-16T07:19:23.101Z,4.93
2024-01-16T07:21:45.839Z,4.53
2024-01-16T07:24:08.092Z,3.70
2024-01-16T07:26:31.109Z,4.20
2024-01-16T07:28:53.055Z,4.28
2024-01-16T07:31:17.483Z,4.60
2024-01-16T07:33:39.511Z,4.22
2024-01-16T07:36:01.924Z,3.72
2024-01-16T07:38:23.902Z,3.87
2024-01-16T07:40:45.851Z,4.30
2024-01-16T07:43:07.784Z,3.80
2024-01-16T07:45:29.651Z,3.78
2024-01-16T07:47:51.682Z,3.70
2024-01-16T07:50:13.671Z,3.35
2024-01-16T07:52:35.657Z,3.65
2024-01-16T07:54:57.573Z,3.30
2024-01-16T07:57:19.959Z,3.50
2024-01-16T07:59:44.487Z,4.15
2024-01-16T08:02:06.420Z,4.30
2024-01-16T08:04:28.327Z,4.47
2024-01-16T08:06:50.366Z,4.40
2024-01-16T08:09:13.502Z,4.50
2024-01-16T08:11:37.773Z,4.38
2024-01-16T08:13:59.726Z,3.90
2024-01-16T08:16:21.932Z,3.80
2024-01-16T08:18:43.958Z,4.50
2024-01-16T08:21:06.962Z,4.20
2024-01-16T08:23:28.908Z,3.50
2024-01-16T08:25:52.669Z,3.88
2024-01-16T08:28:15.173Z,3.20
2024-01-16T08:30:37.833Z,3.10
2024-01-16T08:32:59.880Z,3.85
2024-01-16T08:35:21.861Z,3.47
2024-01-16T08:37:43.797Z,4.20
2024-01-16T08:40:06.943Z,3.75
2024-01-16T08:42:28.784Z,3.85
2024-01-16T08:44:50.788Z,4.30
2024-01-16T08:47:12.720Z,4.50
2024-01-16T08:49:34.733Z,4.45
2024-01-16T08:51:56.709Z,4.30
2024-01-16T08:54:18.668Z,4.60
2024-01-16T08:56:40.579Z,3.35
2024-01-16T08:59:02.678Z,4.57
2024-01-16T09:01:24.644Z,4.10
2024-01-16T09:03:47.418Z,4.25
2024-01-16T09:06:09.937Z,3.90
2024-01-16T09:08:33.018Z,3.40
2024-01-16T09:10:55.730Z,4.00
2024-01-16T09:13:17.592Z,4.35
2024-01-16T09:15:39.559Z,3.80
2024-01-16T09:18:01.594Z,3.30
2024-01-16T09:20:24.770Z,3.88
2024-01-16T09:22:46.968Z,3.75
2024-01-16T09:25:08.973Z,3.15
2024-01-16T09:27:30.803Z,3.30
2024-01-16T09:29:53.128Z,3.92
2024-01-16T09:32:15.034Z,3.90
2024-01-16T09:34:36.976Z,3.67
2024-01-16T09:37:02.003Z,3.88
2024-01-16T09:39:24.165Z,3.83
2024-01-16T09:41:46.346Z,2.92
2024-01-16T09:44:08.513Z,3.50
2024-01-16T09:46:32.631Z,2.90
2024-01-16T09:48:57.559Z,4.25
2024-01-16T09:51:19.555Z,3.67
2024-01-16T09:53:44.645Z,4.45
2024-01-16T09:56:15.448Z,4.60
2024-01-16T09:58:38.535Z,4.20
2024-01-16T10:01:00.903Z,3.80
2024-01-16T10:03:23.285Z,4.30
2024-01-16T10:05:46.900Z,4.13
2024-01-16T10:08:09.132Z,3.95
2024-01-16T10:10:39.053Z,3.78
2024-01-16T10:13:08.751Z,4.00
2024-01-16T10:15:31.562Z,4.25
2024-01-16T10:17:53.874Z,4.18
2024-01-16T10:20:18.368Z,4.35
2024-01-16T10:22:41.676Z,4.10
2024-01-16T10:25:08.701Z,4.20
2024-01-16T10:27:32.236Z,4.30
2024-01-16T10:29:59.044Z,3.97
2024-01-16T10:32:38.716Z,4.05
2024-01-16T10:35:05.629Z,3.97
2024-01-16T10:37:27.980Z,3.80
2024-01-16T10:39:51.974Z,4.63
2024-01-16T10:42:16.565Z,3.60
2024-01-16T10:44:39.335Z,4.70
2024-01-16T10:47:23.026Z,4.85
2024-01-16T10:52:13.552Z,4.55
2024-01-16T10:54:38.433Z,4.60
2024-01-16T10:57:00.632Z,4.55
2024-01-16T10:59:47.818Z,4.70
2024-01-16T11:02:14.158Z,5.00
2024-01-16T11:04:38.679Z,4.80
2024-01-16T11:07:01.737Z,4.50
2024-01-16T11:09:23.641Z,4.93
2024-01-16T11:11:47.162Z,5.68
2024-01-16T11:14:09.523Z,5.22
2024-01-16T11:16:35.624Z,5.20
2024-01-16T11:19:13.468Z,5.00
2024-01-16T11:21:40.930Z,4.80
2024-01-16T11:24:03.054Z,4.60
2024-01-16T11:26:33.472Z,5.00
2024-01-16T11:29:00.173Z,5.35
2024-01-16T11:31:33.986Z,4.65
2024-01-16T11:33:56.038Z,5.60
2024-01-16T11:36:48.330Z,4.70
2024-01-16T11:39:12.952Z,4.85
2024-01-16T11:41:54.052Z,5.00
2024-01-16T11:44:49.328Z,5.00
2024-01-16T11:47:21.940Z,4.60
2024-01-16T11:49:44.059Z,5.15
2024-01-16T11:52:06.321Z,3.75
2024-01-16T11:54:28.289Z,3.40
2024-01-16T11:57:06.792Z,5.13
2024-01-16T12:00:01.359Z,3.50
2024-01-16T12:02:38.403Z,4.60
2024-01-16T12:05:04.829Z,4.85
2024-01-16T12:07:26.773Z,4.30
2024-01-16T12:09:49.132Z,5.18
2024-01-16T12:12:11.085Z,4.00
2024-01-16T12:14:33.138Z,4.70
2024-01-16T12:17:11.907Z,4.50
2024-01-16T12:19:33.974Z,5.13
2024-01-16T12:21:55.996Z,4.30
2024-01-16T12:24:18.978Z,4.43
2024-01-16T12:26:42.572Z,4.65
2024-01-16T12:29:04.769Z,4.30
2024-01-16T12:31:28.400Z,4.65
2024-01-16T12:33:57.961Z,4.10
2024-01-16T12:36:24.776Z,4.80
2024-01-16T12:38:56.584Z,3.80
2024-01-16T12:41:26.479Z,4.10
2024-01-16T12:44:01.000Z,4.13
2024-01-16T12:46:29.374Z,4.30
2024-01-16T12:49:00.188Z,3.90
2024-01-16T12:51:25.464Z,3.78
2024-01-16T12:53:47.634Z,4.15
2024-01-16T12:56:11.008Z,4.00
2024-01-16T12:58:37.276Z,4.10
2024-01-16T13:01:34.286Z,4.03
2024-01-16T13:04:05.244Z,3.80
2024-01-16T13:06:27.227Z,3.80
2024-01-16T13:09:16.241Z,3.20
2024-01-16T13:11:53.499Z,3.20
2024-01-16T13:14:15.860Z,3.30
2024-01-16T13:16:37.769Z,3.30
2024-01-16T13:19:05.278Z,2.85
2024-01-16T13:21:27.219Z,3.58
2024-01-16T13:23:49.119Z,3.40
2024-01-16T13:26:11.067Z,3.10
2024-01-16T13:28:32.942Z,2.78
2024-01-16T13:30:54.938Z,2.45
2024-01-16T13:33:17.523Z,2.42
2024-01-16T13:35:44.367Z,2.80
2024-01-16T13:38:09.913Z,2.50
2024-01-16T13:40:32.480Z,2.70
2024-01-16T13:42:54.373Z,2.70
2024-01-16T13:45:17.792Z,2.63
2024-01-16T13:47:41.776Z,2.35
2024-01-16T13:50:04.687Z,2.30
2024-01-16T13:52:28.630Z,2.08
2024-01-16T13:54:51.284Z,1.83
2024-01-16T13:57:14.296Z,1.90
2024-01-16T13:59:37.438Z,1.90
2024-01-16T14:01:59.723Z,2.22
2024-01-16T14:04:21.907Z,2.25
2024-01-16T14:07:01.796Z,2.00
2024-01-16T14:09:25.786Z,1.97
2024-01-16T14:11:47.781Z,2.20
2024-01-16T14:14:12.339Z,2.67
2024-01-16T14:16:47.940Z,2.20
2024-01-16T14:19:13.631Z,2.45
2024-01-16T14:21:36.083Z,2.20
2024-01-16T14:23:57.990Z,2.55
2024-01-16T14:26:19.952Z,2.20
2024-01-16T14:28:41.841Z,2.53
2024-01-16T14:31:03.915Z,2.50
2024-01-16T14:33:25.995Z,2.58
2024-01-16T14:35:47.967Z,2.50
2024-01-16T14:38:09.835Z,2.60
2024-01-16T14:40:32.435Z,2.83
2024-01-16T14:42:57.398Z,2.53
2024-01-16T14:45:19.368Z,2.60
2024-01-16T14:47:41.814Z,2.60
2024-01-16T14:50:04.900Z,2.88
2024-01-16T14:52:26.940Z,2.63
2024-01-16T14:54:49.026Z,3.05
2024-01-16T14:57:12.441Z,2.90
2024-01-16T14:59:34.490Z,3.03
2024-01-16T15:01:56.386Z,2.90
2024-01-16T15:04:18.815Z,2.95
2024-01-16T15:06:41.159Z,2.65
2024-01-16T15:09:03.412Z,3.10
2024-01-16T15:11:28.957Z,3.05
2024-01-16T15:13:51.139Z,3.00
2024-01-16T15:16:13.246Z,2.78
2024-01-16T15:18:35.328Z,2.50
2024-01-16T15:20:57.781Z,3.10
2024-01-16T15:23:19.767Z,2.92
2024-01-16T15:25:41.718Z,2.70
2024-01-16T15:28:04.383Z,2.80
2024-01-16T15:30:32.627Z,2.72
2024-01-16T15:32:54.920Z,2.70
2024-01-16T15:35:17.087Z,2.67
2024-01-16T15:37:38.975Z,2.90
2024-01-16T15:40:00.889Z,3.15
2024-01-16T15:42:23.079Z,3.10
2024-01-16T15:44:45.119Z,3.38
2024-01-16T15:47:07.034Z,3.30
2024-01-16T15:49:32.157Z,3.50
2024-01-16T15:51:54.618Z,3.85
2024-01-16T15:54:16.694Z,3.83
2024-01-16T15:56:38.628Z,3.63
2024-01-16T15:59:00.481Z,4.00
2024-01-16T16:01:23.081Z,3.70
2024-01-16T16:03:45.956Z,3.75
2024-01-16T16:06:09.991Z,3.80
2024-01-16T16:08:32.013Z,3.67
2024-01-16T16:10:53.962Z,3.50
2024-01-16T16:13:18.515Z,3.88
2024-01-16T16:15:43.530Z,3.83
2024-01-16T16:18:05.833Z,3.50
2024-01-16T16:20:27.875Z,4.43
2024-01-16T16:22:51.872Z,4.20
2024-01-16T16:25:13.833Z,4.10
2024-01-16T16:27:35.734Z,4.40
2024-01-16T16:29:59.202Z,4.90
2024-01-16T16:32:21.386Z,5.15
2024-01-16T16:34:46.762Z,4.97
2024-01-16T16:37:08.692Z,5.30
2024-01-16T16:39:30.568Z,5.70
2024-01-16T16:41:52.632Z,5.70
2024-01-16T16:44:14.989Z,5.20
2024-01-16T16:46:37.397Z,5.03
2024-01-16T16:49:00.158Z,4.80
2024-01-16T16:51:24.489Z,4.60
2024-01-16T16:53:47.028Z,4.80
2024-01-16T16:56:12.915Z,4.70
2024-01-16T16:58:34.880Z,4.50
2024-01-16T17:00:56.820Z,5.55
2024-01-16T17:03:18.725Z,4.47
2024-01-16T17:05:40.912Z,4.40
2024-01-16T17:08:03.021Z,4.18
2024-01-16T17:10:24.925Z,4.30
2024-01-16T17:12:47.569Z,4.53
2024-01-16T17:15:09.747Z,4.60
2024-01-16T17:17:33.822Z,4.68
2024-01-16T17:19:55.765Z,3.95
2024-01-16T17:22:17.782Z,4.00
2024-01-16T17:24:39.800Z,4.15
2024-01-16T17:27:01.861Z,3.83
2024-01-16T17:29:23.897Z,4.88
2024-01-16T17:31:45.791Z,4.45
2024-01-16T17:34:07.895Z,4.53
2024-01-16T17:36:30.261Z,4.18
2024-01-16T17:38:57.164Z,4.30
2024-01-16T17:41:21.600Z,4.50
2024-01-16T17:43:43.803Z,4.70
2024-01-16T17:46:06.463Z,5.10
2024-01-16T17:48:29.082Z,4.90
2024-01-16T17:50:51.455Z,4.57
2024-01-16T17:53:13.616Z,4.85
2024-01-16T17:55:35.792Z,5.13
2024-01-16T17:58:01.277Z,5.70
2024-01-16T18:00:23.750Z,6.68
2024-01-16T18:02:48.076Z,5.37
2024-01-16T18:05:17.392Z,5.53
2024-01-16T18:07:46.848Z,5.00
2024-01-16T18:10:10.216Z,4.93
2024-01-16T18:12:33.125Z,4.78
2024-01-16T18:14:55.428Z,5.07
2024-01-16T18:17:19.556Z,5.00
2024-01-16T18:19:41.749Z,6.05
2024-01-16T18:22:06.871Z,5.55
2024-01-16T18:24:29.185Z,5.80
2024-01-16T18:26:51.205Z,5.80
2024-01-16T18:29:13.368Z,6.47
2024-01-16T18:31:35.290Z,7.20
2024-01-16T18:33:57.416Z,6.35
2024-01-16T18:36:21.017Z,6.32
2024-01-16T18:38:46.572Z,6.40
2024-01-16T18:41:08.603Z,6.88
2024-01-16T18:43:30.538Z,6.72
2024-01-16T18:45:52.911Z,6.88
2024-01-16T18:48:15.700Z,6.63
2024-01-16T18:50:38.666Z,7.22
2024-01-16T18:53:00.588Z,7.30
2024-01-16T18:55:22.504Z,7.70
2024-01-16T18:57:45.671Z,7.63
2024-01-16T19:00:16.714Z,8.35
2024-01-16T19:02:38.657Z,8.70
2024-01-16T19:05:00.706Z,8.88
2024-01-16T19:07:24.553Z,8.50
2024-01-16T19:09:46.455Z,8.68
2024-01-16T19:12:08.592Z,8.95
2024-01-16T19:14:30.537Z,8.70
2024-01-16T19:16:52.484Z,8.30
2024-01-16T19:19:18.110Z,8.77
2024-01-16T19:21:40.003Z,9.00
2024-01-16T19:24:02.016Z,8.10
2024-01-16T19:26:24.733Z,8.63
2024-01-16T19:28:46.610Z,9.18
2024-01-16T19:31:08.540Z,9.20
2024-01-16T19:33:30.641Z,7.95
2024-01-16T19:35:52.687Z,8.60
2024-01-16T19:38:14.779Z,8.27
2024-01-16T19:40:36.750Z,9.15
2024-01-16T19:43:05.831Z,8.98
2024-01-16T19:45:27.691Z,10.52
2024-01-16T19:47:50.315Z,9.50
2024-01-16T19:50:23.002Z,8.70
2024-01-16T19:52:52.662Z,8.90
2024-01-16T19:55:16.263Z,9.00
2024-01-16T19:57:38.176Z,8.90
2024-01-16T20:00:02.586Z,7.90
2024-01-16T20:02:25.426Z,8.70
2024-01-16T20:04:47.533Z,8.90
2024-01-16T20:07:09.532Z,10.90
2024-01-16T20:09:31.439Z,10.50
2024-01-16T20:11:53.553Z,8.40
2024-01-16T20:14:16.691Z,8.45
2024-01-16T20:16:39.885Z,8.43
2024-01-16T20:19:01.948Z,7.65
2024-01-16T20:21:27.185Z,7.88
2024-01-16T20:23:50.691Z,7.57
2024-01-16T20:26:13.308Z,7.50
2024-01-16T20:28:35.180Z,7.60
2024-01-16T20:30:57.338Z,7.70
2024-01-16T20:33:19.591Z,7.45
2024-01-16T20:35:41.675Z,8.23
2024-01-16T20:38:03.761Z,7.95
2024-01-16T20:40:25.660Z,8.10
2024-01-16T20:42:47.526Z,8.57
2024-01-16T20:45:13.687Z,8.50
2024-01-16T20:47:35.893Z,9.00
2024-01-16T20:49:58.028Z,9.25
2024-01-16T20:52:22.639Z,8.75
2024-01-16T20:54:44.602Z,9.15
2024-01-16T20:57:07.016Z,9.10
2024-01-16T20:59:28.956Z,8.82
2024-01-16T21:01:51.615Z,8.57
2024-01-16T21:04:14.542Z,8.50
2024-01-16T21:06:37.677Z,8.93
2024-01-16T21:08:59.774Z,8.90
2024-01-16T21:11:22.647Z,8.88
2024-01-16T21:13:44.780Z,8.93
2024-01-16T21:16:07.601Z,8.80
2024-01-16T21:18:32.676Z,8.52
2024-01-16T21:20:56.417Z,8.40
2024-01-16T21:23:18.509Z,8.30
2024-01-16T21:25:40.582Z,8.75
2024-01-16T21:28:02.615Z,8.00
2024-01-16T21:30:27.679Z,8.70
2024-01-16T21:32:49.826Z,8.20
2024-01-16T21:35:13.069Z,8.00
2024-01-16T21:37:34.937Z,8.35
2024-01-16T21:39:56.822Z,8.40
2024-01-16T21:42:18.691Z,8.00
2024-01-16T21:44:40.658Z,8.48
2024-01-16T21:47:02.766Z,9.00
2024-01-16T21:49:24.785Z,8.75
2024-01-16T21:51:46.893Z,9.15
2024-01-16T21:54:08.847Z,9.40
2024-01-16T21:56:30.797Z,10.90
2024-01-16T21:58:52.665Z,11.65
2024-01-16T22:01:14.817Z,11.20
2024-01-16T22:03:37.927Z,10.98
2024-01-16T22:06:00.061Z,10.95
2024-01-16T22:08:22.089Z,9.70
2024-01-16T22:10:44.001Z,10.60
2024-01-16T22:13:05.886Z,10.50
2024-01-16T22:15:27.771Z,11.18
2024-01-16T22:17:49.751Z,10.85
2024-01-16T22:20:11.879Z,10.37
2024-01-16T22:22:33.824Z,11.75
2024-01-16T22:24:55.781Z,11.32
2024-01-16T22:27:20.439Z,11.80
2024-01-16T22:29:46.528Z,11.70
2024-01-16T22:32:08.765Z,11.60
2024-01-16T22:34:30.701Z,11.35
2024-01-16T22:36:52.801Z,10.87
2024-01-16T22:39:18.696Z,11.10
2024-01-16T22:41:48.943Z,11.55
2024-01-16T22:44:11.777Z,10.10
2024-01-16T22:46:33.681Z,9.65
2024-01-16T22:48:55.877Z,9.57
2024-01-16T22:51:17.871Z,9.60
2024-01-16T22:53:39.836Z,8.82
2024-01-16T22:56:01.772Z,9.00
2024-01-16T22:58:23.862Z,9.10
2024-01-16T23:00:52.897Z,12.88
2024-01-16T23:03:14.930Z,10.45
2024-01-16T23:05:37.597Z,10.52
2024-01-16T23:07:59.968Z,10.00
2024-01-16T23:10:21.916Z,9.90
2024-01-16T23:12:44.242Z,10.23
2024-01-16T23:15:06.823Z,10.70
2024-01-16T23:17:30.733Z,10.20
2024-01-16T23:19:52.626Z,10.90
2024-01-16T23:22:14.972Z,10.48
2024-01-16T23:24:38.078Z,8.80
2024-01-16T23:27:00.177Z,8.90
2024-01-16T23:29:22.152Z,10.20
2024-01-16T23:31:44.055Z,9.60
2024-01-16T23:34:09.055Z,9.25
2024-01-16T23:36:31.274Z,9.30
2024-01-16T23:38:55.610Z,9.55
2024-01-16T23:41:19.178Z,8.50
2024-01-16T23:43:43.373Z,7.93
2024-01-16T23:46:08.506Z,8.70
2024-01-16T23:48:30.510Z,8.63
2024-01-16T23:50:52.594Z,8.25
2024-01-16T23:53:14.472Z,8.23
2024-01-16T23:55:36.417Z,8.95
2024-01-16T23:57:59.029Z,8.40
